createdAt,value
2023-01-17T00:00:04.430Z,119
2023-01-17T00:01:12.130Z,119
2023-01-17T00:02:19.493Z,109
2023-01-17T00:03:27.013Z,114
2023-01-17T00:04:33.935Z,106
2023-01-17T00:05:46.343Z,116
2023-01-17T00:06:58.327Z,118
2023-01-17T00:08:10.618Z,124
2023-01-17T00:09:22.640Z,115
2023-01-17T00:10:35.050Z,114
2023-01-17T00:11:42.151Z,120
2023-01-17T00:12:49.230Z,122
2023-01-17T00:13:58.854Z,109
2023-01-17T00:15:06.093Z,107
2023-01-17T00:16:13.765Z,118
2023-01-17T00:17:21.004Z,108
2023-01-17T00:18:28.491Z,105
2023-01-17T00:19:35.521Z,107
2023-01-17T00:20:47.818Z,109
2023-01-17T00:21:59.996Z,113
2023-01-17T00:23:15.226Z,119
2023-01-17T00:24:27.550Z,117
2023-01-17T00:25:39.675Z,109
2023-01-17T00:26:51.878Z,114
2023-01-17T00:28:04.187Z,113
2023-01-17T00:29:11.392Z,105
2023-01-17T00:30:18.339Z,108
2023-01-17T00:31:25.597Z,106
2023-01-17T00:32:32.571Z,101
2023-01-17T00:33:39.735Z,96
2023-01-17T00:34:46.914Z,98
2023-01-17T00:35:54.133Z,89
2023-01-17T00:37:01.203Z,89
2023-01-17T00:38:08.388Z,90
2023-01-17T00:39:15.431Z,91
2023-01-17T00:40:22.647Z,90
2023-01-17T00:41:29.731Z,87
2023-01-17T00:42:37.340Z,75
2023-01-17T00:43:44.486Z,76
2023-01-17T00:44:56.791Z,72
2023-01-17T00:46:09.207Z,73
2023-01-17T00:47:21.820Z,76
2023-01-17T00:48:33.926Z,77
2023-01-17T00:49:46.182Z,68
2023-01-17T00:50:58.331Z,67
2023-01-17T00:52:10.656Z,68
2023-01-17T00:53:22.838Z,68
2023-01-17T00:54:35.006Z,75
2023-01-17T00:55:47.154Z,84
2023-01-17T00:56:59.459Z,83
2023-01-17T00:58:11.725Z,87
2023-01-17T00:59:23.890Z,87
2023-01-17T01:00:36.141Z,104
2023-01-17T01:01:48.422Z,106
2023-01-17T01:03:00.639Z,110
2023-01-17T01:04:15.790Z,119
2023-01-17T01:05:28.013Z,115
2023-01-17T01:06:40.154Z,119
2023-01-17T01:07:52.491Z,110
2023-01-17T01:09:04.898Z,121
2023-01-17T01:10:17.002Z,112
2023-01-17T01:11:29.599Z,109
2023-01-17T01:12:41.791Z,110
2023-01-17T01:13:54.127Z,109
2023-01-17T01:15:06.280Z,109
2023-01-17T01:16:18.558Z,109
2023-01-17T01:17:30.737Z,106
2023-01-17T01:18:42.883Z,100
2023-01-17T01:19:55.186Z,103
2023-01-17T01:21:07.475Z,112
2023-01-17T01:22:19.726Z,103
2023-01-17T01:23:34.470Z,102
2023-01-17T01:24:46.631Z,97
2023-01-17T01:25:58.855Z,103
2023-01-17T01:27:11.323Z,99
2023-01-17T01:28:23.852Z,99
2023-01-17T01:29:35.854Z,98
2023-01-17T01:30:48.245Z,93
2023-01-17T01:32:00.454Z,88
2023-01-17T01:33:12.804Z,83
2023-01-17T01:34:25.278Z,83
2023-01-17T01:35:32.429Z,89
2023-01-17T01:36:39.597Z,94
2023-01-17T01:37:46.750Z,92
2023-01-17T01:38:53.852Z,82
2023-01-17T01:40:01.013Z,77
2023-01-17T01:41:08.809Z,81
2023-01-17T01:42:15.800Z,76
2023-01-17T01:43:23.016Z,78
2023-01-17T01:44:40.517Z,67
2023-01-17T01:45:53.342Z,63
2023-01-17T01:47:00.466Z,65
2023-01-17T01:48:08.596Z,62
2023-01-17T01:49:23.999Z,61
2023-01-17T01:50:31.001Z,60
2023-01-17T01:51:38.171Z,64
2023-01-17T01:52:45.316Z,62
2023-01-17T01:53:52.376Z,66
2023-01-17T01:54:59.663Z,67
2023-01-17T01:56:09.872Z,60
2023-01-17T01:57:16.905Z,63
2023-01-17T01:58:23.967Z,56
2023-01-17T01:59:31.084Z,69
2023-01-17T02:00:38.264Z,54
2023-01-17T02:01:45.513Z,45
2023-01-17T02:02:52.598Z,47
2023-01-17T02:03:59.714Z,56
2023-01-17T02:05:06.780Z,50
2023-01-17T02:06:13.847Z,46
2023-01-17T02:07:25.952Z,50
2023-01-17T02:08:38.453Z,43
2023-01-17T02:09:45.398Z,43
2023-01-17T02:10:52.551Z,40
2023-01-17T02:11:59.740Z,33
2023-01-17T02:13:06.873Z,43
2023-01-17T02:14:13.980Z,34
2023-01-17T02:15:21.077Z,34
2023-01-17T02:16:28.450Z,33
2023-01-17T02:17:40.861Z,31
2023-01-17T02:18:51.158Z,25
2023-01-17T02:20:04.339Z,40
2023-01-17T02:21:16.534Z,31
2023-01-17T02:22:26.201Z,41
2023-01-17T02:23:43.513Z,30
2023-01-17T02:24:55.690Z,27
2023-01-17T02:26:12.994Z,30
2023-01-17T02:27:25.287Z,33
2023-01-17T02:28:32.232Z,25
2023-01-17T02:29:42.514Z,25
2023-01-17T02:30:59.881Z,35
2023-01-17T02:32:09.547Z,33
2023-01-17T02:33:27.294Z,27
2023-01-17T02:34:37.498Z,36
2023-01-17T02:35:52.723Z,36
2023-01-17T02:37:10.057Z,27
2023-01-17T02:38:24.328Z,29
2023-01-17T02:39:36.780Z,25
2023-01-17T02:40:43.667Z,32
2023-01-17T02:41:58.934Z,35
2023-01-17T02:43:06.048Z,25
2023-01-17T02:44:13.241Z,33
2023-01-17T02:45:20.521Z,31
2023-01-17T02:46:27.454Z,32
2023-01-17T02:47:34.564Z,31
2023-01-17T02:48:41.722Z,25
2023-01-17T02:49:48.815Z,31
2023-01-17T02:50:55.933Z,33
2023-01-17T02:52:11.206Z,44
2023-01-17T02:53:23.958Z,37
2023-01-17T02:54:33.678Z,36
2023-01-17T02:55:45.965Z,25
2023-01-17T02:57:01.066Z,39
2023-01-17T02:58:13.451Z,34
2023-01-17T02:59:25.498Z,35
2023-01-17T03:00:42.884Z,30
2023-01-17T03:02:00.464Z,27
2023-01-17T03:03:12.969Z,25
2023-01-17T03:04:25.550Z,28
2023-01-17T03:05:38.910Z,30
2023-01-17T03:06:51.187Z,34
2023-01-17T03:07:58.055Z,33
2023-01-17T03:09:05.388Z,32
2023-01-17T03:10:12.442Z,30
2023-01-17T03:11:19.666Z,25
2023-01-17T03:12:27.321Z,25
2023-01-17T03:13:34.536Z,33
2023-01-17T03:14:41.533Z,25
2023-01-17T03:15:48.633Z,37
2023-01-17T03:16:55.775Z,38
2023-01-17T03:18:02.850Z,32
2023-01-17T03:19:09.956Z,37
2023-01-17T03:20:17.215Z,29
2023-01-17T03:21:24.743Z,42
2023-01-17T03:22:31.875Z,34
2023-01-17T03:23:38.981Z,30
2023-01-17T03:24:46.085Z,28
2023-01-17T03:25:53.534Z,31
2023-01-17T03:27:00.552Z,31
2023-01-17T03:28:07.452Z,30
2023-01-17T03:29:14.771Z,32
2023-01-17T03:30:21.891Z,35
2023-01-17T03:31:29.012Z,30
2023-01-17T03:32:36.104Z,39
2023-01-17T03:33:43.233Z,30
2023-01-17T03:34:50.387Z,38
2023-01-17T03:35:57.433Z,35
2023-01-17T03:37:04.715Z,33
2023-01-17T03:38:11.780Z,29
2023-01-17T03:39:18.911Z,32
2023-01-17T03:40:26.000Z,40
2023-01-17T03:41:33.113Z,30
2023-01-17T03:42:40.270Z,33
2023-01-17T03:43:47.445Z,28
2023-01-17T03:44:54.667Z,25
2023-01-17T03:46:01.825Z,28
2023-01-17T03:47:08.794Z,43
2023-01-17T03:48:15.890Z,46
2023-01-17T03:49:23.109Z,39
2023-01-17T03:50:30.227Z,45
2023-01-17T03:51:37.330Z,36
2023-01-17T03:52:44.600Z,38
2023-01-17T03:53:51.578Z,37
2023-01-17T03:54:58.749Z,37
2023-01-17T03:56:05.941Z,34
2023-01-17T03:57:22.529Z,36
2023-01-17T03:58:29.696Z,38
2023-01-17T03:59:36.945Z,43
2023-01-17T04:00:44.133Z,42
2023-01-17T04:01:51.256Z,44
2023-01-17T04:02:59.425Z,47
2023-01-17T04:04:06.455Z,51
2023-01-17T04:05:13.549Z,42
2023-01-17T04:06:20.771Z,45
2023-01-17T04:07:27.859Z,45
2023-01-17T04:08:34.958Z,47
2023-01-17T04:09:42.174Z,51
2023-01-17T04:10:49.388Z,46
2023-01-17T04:11:56.613Z,46
2023-01-17T04:13:08.890Z,48
2023-01-17T04:14:16.386Z,47
2023-01-17T04:15:23.528Z,56
2023-01-17T04:16:30.642Z,47
2023-01-17T04:17:37.703Z,57
2023-01-17T04:18:51.021Z,41
2023-01-17T04:19:58.058Z,46
2023-01-17T04:21:05.255Z,43
2023-01-17T04:22:12.390Z,47
2023-01-17T04:23:19.457Z,47
2023-01-17T04:24:29.402Z,39
2023-01-17T04:25:36.779Z,46
2023-01-17T04:26:43.830Z,45
2023-01-17T04:27:50.929Z,33
2023-01-17T04:28:58.134Z,46
2023-01-17T04:30:05.435Z,44
2023-01-17T04:31:13.501Z,45
2023-01-17T04:32:20.577Z,42
2023-01-17T04:33:27.661Z,50
2023-01-17T04:34:34.824Z,44
2023-01-17T04:35:41.988Z,43
2023-01-17T04:36:49.093Z,46
2023-01-17T04:37:56.245Z,55
2023-01-17T04:39:03.363Z,51
2023-01-17T04:40:10.458Z,51
2023-01-17T04:41:17.596Z,48
2023-01-17T04:42:24.711Z,48
2023-01-17T04:43:31.882Z,48
2023-01-17T04:44:39.065Z,39
2023-01-17T04:45:46.156Z,43
2023-01-17T04:46:53.338Z,44
2023-01-17T04:48:00.442Z,39
2023-01-17T04:49:07.710Z,43
2023-01-17T04:50:15.261Z,30
2023-01-17T04:51:22.418Z,31
2023-01-17T04:52:29.383Z,25
2023-01-17T04:53:36.525Z,25
2023-01-17T04:54:43.664Z,27
2023-01-17T04:55:50.879Z,34
2023-01-17T04:56:58.094Z,25
2023-01-17T04:58:05.029Z,32
2023-01-17T04:59:12.177Z,26
2023-01-17T05:00:19.383Z,26
2023-01-17T05:01:26.561Z,32
2023-01-17T05:02:33.661Z,25
2023-01-17T05:03:41.723Z,25
2023-01-17T05:04:48.799Z,27
2023-01-17T05:05:56.012Z,26
2023-01-17T05:07:03.139Z,26
2023-01-17T05:08:10.220Z,34
2023-01-17T05:09:17.397Z,36
2023-01-17T05:10:24.432Z,43
2023-01-17T05:11:31.609Z,47
2023-01-17T05:12:38.670Z,40
2023-01-17T05:13:45.813Z,50
2023-01-17T05:14:53.005Z,51
2023-01-17T05:16:00.130Z,59
2023-01-17T05:17:07.298Z,68
2023-01-17T05:18:14.319Z,53
2023-01-17T05:19:21.572Z,62
2023-01-17T05:20:28.573Z,66
2023-01-17T05:21:35.813Z,61
2023-01-17T05:22:43.034Z,66
2023-01-17T05:23:50.130Z,64
2023-01-17T05:24:57.155Z,64
2023-01-17T05:26:04.362Z,58
2023-01-17T05:27:11.458Z,66
2023-01-17T05:28:18.500Z,63
2023-01-17T05:29:25.708Z,65
2023-01-17T05:30:32.692Z,72
2023-01-17T05:31:39.993Z,67
2023-01-17T05:32:48.553Z,77
2023-01-17T05:33:55.708Z,71
2023-01-17T05:35:02.983Z,78
2023-01-17T05:36:10.647Z,85
2023-01-17T05:37:18.203Z,92
2023-01-17T05:38:25.263Z,95
2023-01-17T05:39:32.375Z,93
2023-01-17T05:40:39.479Z,93
2023-01-17T05:41:46.686Z,97
2023-01-17T05:42:53.897Z,96
2023-01-17T05:44:01.062Z,102
2023-01-17T05:45:08.637Z,100
2023-01-17T05:46:15.819Z,106
2023-01-17T05:47:22.924Z,92
2023-01-17T05:48:29.955Z,94
2023-01-17T05:49:37.166Z,90
2023-01-17T05:50:44.397Z,84
2023-01-17T05:51:54.204Z,88
2023-01-17T05:52:58.905Z,87
2023-01-17T05:54:06.051Z,93
2023-01-17T05:55:13.358Z,88
2023-01-17T05:56:20.961Z,85
2023-01-17T05:57:28.073Z,89
2023-01-17T05:58:35.101Z,87
2023-01-17T05:59:42.369Z,85
2023-01-17T06:00:49.502Z,80
2023-01-17T06:01:56.626Z,76
2023-01-17T06:03:03.761Z,75
2023-01-17T06:04:10.750Z,72
2023-01-17T06:05:17.912Z,80
2023-01-17T06:06:25.185Z,73
2023-01-17T06:07:32.093Z,71
2023-01-17T06:08:39.462Z,72
2023-01-17T06:09:46.601Z,71
2023-01-17T06:10:53.637Z,65
2023-01-17T06:12:00.693Z,66
2023-01-17T06:13:07.840Z,63
2023-01-17T06:14:15.108Z,65
2023-01-17T06:15:22.141Z,60
2023-01-17T06:16:29.213Z,63
2023-01-17T06:17:36.277Z,62
2023-01-17T06:18:43.438Z,60
2023-01-17T06:19:50.545Z,55
2023-01-17T06:20:57.764Z,61
2023-01-17T06:22:04.918Z,69
2023-01-17T06:23:12.081Z,68
2023-01-17T06:24:19.193Z,71
2023-01-17T06:25:26.281Z,67
2023-01-17T06:26:33.391Z,63
2023-01-17T06:27:40.701Z,71
2023-01-17T06:28:47.860Z,70
2023-01-17T06:29:55.398Z,64
2023-01-17T06:31:03.404Z,64
2023-01-17T06:32:10.554Z,66
2023-01-17T06:33:17.725Z,65
2023-01-17T06:34:24.877Z,65
2023-01-17T06:35:32.109Z,60
2023-01-17T06:36:39.245Z,70
2023-01-17T06:37:46.276Z,61
2023-01-17T06:38:56.473Z,61
2023-01-17T06:40:03.634Z,66
2023-01-17T06:41:11.209Z,65
2023-01-17T06:42:19.193Z,63
2023-01-17T06:43:26.548Z,79
2023-01-17T06:44:33.609Z,74
2023-01-17T06:45:40.890Z,75
2023-01-17T06:46:47.913Z,72
2023-01-17T06:47:54.996Z,69
2023-01-17T06:49:02.227Z,71
2023-01-17T06:50:09.289Z,77
2023-01-17T06:51:16.435Z,76
2023-01-17T06:52:23.585Z,84
2023-01-17T06:53:30.640Z,79
2023-01-17T06:54:37.743Z,76
2023-01-17T06:55:44.894Z,77
2023-01-17T06:56:52.299Z,79
2023-01-17T06:57:59.587Z,77
2023-01-17T06:59:06.888Z,87
2023-01-17T07:00:14.276Z,77
2023-01-17T07:01:21.928Z,84
2023-01-17T07:02:28.634Z,80
2023-01-17T07:03:36.880Z,80
2023-01-17T07:04:43.909Z,88
2023-01-17T07:05:51.179Z,92
2023-01-17T07:06:58.250Z,83
2023-01-17T07:08:05.368Z,95
2023-01-17T07:09:12.621Z,96
2023-01-17T07:10:19.612Z,94
2023-01-17T07:11:26.805Z,92
2023-01-17T07:12:34.804Z,90
2023-01-17T07:13:42.052Z,103
2023-01-17T07:14:49.154Z,91
2023-01-17T07:15:56.328Z,95
2023-01-17T07:17:06.465Z,96
2023-01-17T07:18:13.528Z,95
2023-01-17T07:19:21.800Z,99
2023-01-17T07:20:28.873Z,98
2023-01-17T07:21:35.928Z,98
2023-01-17T07:22:43.113Z,91
2023-01-17T07:23:50.289Z,97
2023-01-17T07:24:57.651Z,103
2023-01-17T07:26:05.138Z,103
2023-01-17T07:27:12.208Z,107
2023-01-17T07:28:19.383Z,113
2023-01-17T07:29:27.481Z,113
2023-01-17T07:30:34.614Z,108
2023-01-17T07:31:41.720Z,106
2023-01-17T07:32:48.737Z,114
2023-01-17T07:33:55.924Z,116
2023-01-17T07:35:03.216Z,106
2023-01-17T07:36:10.711Z,105
2023-01-17T07:37:17.950Z,118
2023-01-17T07:38:25.032Z,113
2023-01-17T07:39:32.093Z,113
2023-01-17T07:40:42.276Z,111
2023-01-17T07:41:46.525Z,101
2023-01-17T07:42:53.466Z,111
2023-01-17T07:44:05.840Z,113
2023-01-17T07:45:16.034Z,118
2023-01-17T07:46:23.091Z,112
2023-01-17T07:47:30.103Z,110
2023-01-17T07:48:37.245Z,116
2023-01-17T07:49:44.659Z,117
2023-01-17T07:50:51.604Z,120
2023-01-17T07:51:58.844Z,120
2023-01-17T07:53:06.368Z,115
2023-01-17T07:54:13.540Z,113
2023-01-17T07:55:20.621Z,114
2023-01-17T07:56:27.913Z,117
2023-01-17T07:57:34.816Z,127
2023-01-17T07:58:43.107Z,118
2023-01-17T07:59:50.581Z,114
2023-01-17T08:00:58.694Z,124
2023-01-17T08:02:05.979Z,114
2023-01-17T08:03:21.287Z,117
2023-01-17T08:04:28.414Z,114
2023-01-17T08:05:35.460Z,120
2023-01-17T08:06:42.633Z,111
2023-01-17T08:07:49.840Z,114
2023-01-17T08:08:56.834Z,108
2023-01-17T08:10:03.891Z,113
2023-01-17T08:11:13.142Z,106
2023-01-17T08:12:20.269Z,117
2023-01-17T08:13:29.759Z,109
2023-01-17T08:14:34.520Z,116
2023-01-17T08:15:41.644Z,107
2023-01-17T08:16:48.837Z,117
2023-01-17T08:17:55.976Z,113
2023-01-17T08:19:03.068Z,106
2023-01-17T08:20:10.217Z,108
2023-01-17T08:21:17.415Z,110
2023-01-17T08:22:24.476Z,112
2023-01-17T08:23:31.960Z,116
2023-01-17T08:24:39.722Z,109
2023-01-17T08:25:46.709Z,103
2023-01-17T08:26:53.909Z,111
2023-01-17T08:28:01.022Z,108
2023-01-17T08:29:08.161Z,107
2023-01-17T08:30:15.324Z,106
2023-01-17T08:31:24.519Z,101
2023-01-17T08:32:31.667Z,105
2023-01-17T08:33:38.685Z,99
2023-01-17T08:34:45.908Z,96
2023-01-17T08:35:52.920Z,95
2023-01-17T08:37:00.156Z,91
2023-01-17T08:38:07.194Z,96
2023-01-17T08:39:14.352Z,98
2023-01-17T08:40:21.516Z,93
2023-01-17T08:41:30.380Z,93
2023-01-17T08:42:37.673Z,95
2023-01-17T08:43:44.904Z,89
2023-01-17T08:44:51.943Z,92
2023-01-17T08:45:59.198Z,100
2023-01-17T08:47:06.287Z,89
2023-01-17T08:48:13.438Z,93
2023-01-17T08:49:21.048Z,82
2023-01-17T08:50:28.327Z,92
2023-01-17T08:51:35.482Z,92
2023-01-17T08:52:42.909Z,85
2023-01-17T08:53:54.017Z,85
2023-01-17T08:55:01.139Z,86
2023-01-17T08:56:08.383Z,88
2023-01-17T08:57:15.389Z,83
2023-01-17T08:58:23.656Z,85
2023-01-17T08:59:30.862Z,81
2023-01-17T09:00:37.788Z,82
2023-01-17T09:01:45.138Z,88
2023-01-17T09:02:52.132Z,85
2023-01-17T09:03:59.376Z,82
2023-01-17T09:05:06.408Z,91
2023-01-17T09:06:13.572Z,90
2023-01-17T09:07:20.746Z,76
2023-01-17T09:08:27.694Z,92
2023-01-17T09:09:34.969Z,88
2023-01-17T09:10:42.052Z,91
2023-01-17T09:11:49.144Z,86
2023-01-17T09:12:56.464Z,81
2023-01-17T09:14:03.612Z,90
2023-01-17T09:15:10.603Z,87
2023-01-17T09:16:17.675Z,84
2023-01-17T09:17:24.752Z,74
2023-01-17T09:18:31.936Z,78
2023-01-17T09:19:42.845Z,87
2023-01-17T09:20:50.304Z,81
2023-01-17T09:21:57.335Z,81
2023-01-17T09:23:04.495Z,78
2023-01-17T09:24:11.606Z,86
2023-01-17T09:25:18.731Z,86
2023-01-17T09:26:25.885Z,88
2023-01-17T09:27:32.925Z,88
2023-01-17T09:28:41.161Z,99
2023-01-17T09:29:48.305Z,99
2023-01-17T09:30:55.458Z,96
2023-01-17T09:32:02.491Z,94
2023-01-17T09:33:09.564Z,91
2023-01-17T09:34:16.874Z,88
2023-01-17T09:35:23.984Z,85
2023-01-17T09:36:30.934Z,98
2023-01-17T09:37:38.150Z,95
2023-01-17T09:38:46.247Z,98
2023-01-17T09:39:53.381Z,90
2023-01-17T09:41:00.597Z,103
2023-01-17T09:42:07.595Z,93
2023-01-17T09:43:25.004Z,79
2023-01-17T09:44:40.276Z,84
2023-01-17T09:45:53.571Z,78
2023-01-17T09:47:00.745Z,92
2023-01-17T09:48:10.320Z,79
2023-01-17T09:49:17.404Z,83
2023-01-17T09:50:34.644Z,75
2023-01-17T09:51:47.919Z,73
2023-01-17T09:52:55.110Z,76
2023-01-17T09:54:02.251Z,77
2023-01-17T09:55:09.444Z,69
2023-01-17T09:56:16.682Z,55
2023-01-17T09:57:24.142Z,57
2023-01-17T09:58:41.468Z,63
2023-01-17T10:00:03.424Z,54
2023-01-17T10:01:16.719Z,52
2023-01-17T10:02:26.824Z,46
2023-01-17T10:03:43.736Z,43
2023-01-17T10:04:55.699Z,27
2023-01-17T10:06:13.048Z,34
2023-01-17T10:07:20.101Z,27
2023-01-17T10:08:37.328Z,25
2023-01-17T10:09:49.737Z,27
2023-01-17T10:11:07.456Z,25
2023-01-17T10:12:19.725Z,28
2023-01-17T10:13:37.417Z,45
2023-01-17T10:14:52.296Z,49
2023-01-17T10:16:07.588Z,50
2023-01-17T10:17:19.740Z,33
2023-01-17T10:18:37.103Z,38
2023-01-17T10:19:49.734Z,27
2023-01-17T10:21:07.134Z,25
2023-01-17T10:22:14.111Z,32
2023-01-17T10:23:24.520Z,50
2023-01-17T10:24:42.219Z,38
2023-01-17T10:25:51.909Z,44
2023-01-17T10:26:59.164Z,28
2023-01-17T10:28:06.163Z,36
2023-01-17T10:29:20.129Z,25
2023-01-17T10:30:25.805Z,42
2023-01-17T10:31:38.088Z,25
2023-01-17T10:32:45.321Z,38
2023-01-17T10:33:52.554Z,29
2023-01-17T10:34:59.528Z,25
2023-01-17T10:36:06.668Z,38
2023-01-17T10:37:18.932Z,42
2023-01-17T10:38:34.562Z,50
2023-01-17T10:39:41.320Z,28
2023-01-17T10:40:48.536Z,31
2023-01-17T10:41:55.595Z,35
2023-01-17T10:43:11.078Z,25
2023-01-17T10:44:24.110Z,32
2023-01-17T10:45:31.244Z,25
2023-01-17T10:46:38.416Z,26
2023-01-17T10:47:45.405Z,26
2023-01-17T10:48:52.683Z,28
2023-01-17T10:49:59.786Z,40
2023-01-17T10:51:06.896Z,39
2023-01-17T10:52:22.138Z,40
2023-01-17T10:53:37.688Z,28
2023-01-17T10:54:50.153Z,30
2023-01-17T10:56:02.321Z,37
2023-01-17T10:57:09.569Z,28
2023-01-17T10:58:19.747Z,32
2023-01-17T10:59:26.784Z,43
2023-01-17T11:00:36.901Z,32
2023-01-17T11:01:51.822Z,32
2023-01-17T11:02:58.899Z,46
2023-01-17T11:04:05.940Z,38
2023-01-17T11:05:14.196Z,36
2023-01-17T11:06:24.172Z,49
2023-01-17T11:07:31.440Z,36
2023-01-17T11:08:38.533Z,36
2023-01-17T11:09:53.811Z,38
2023-01-17T11:11:00.897Z,42
2023-01-17T11:12:08.212Z,37
2023-01-17T11:13:25.387Z,36
2023-01-17T11:14:35.447Z,26
2023-01-17T11:15:42.658Z,34
2023-01-17T11:16:49.743Z,31
2023-01-17T11:18:01.996Z,29
2023-01-17T11:19:09.156Z,25
2023-01-17T11:20:18.912Z,25
2023-01-17T11:21:36.548Z,33
2023-01-17T11:22:43.710Z,37
2023-01-17T11:23:50.810Z,27
2023-01-17T11:24:57.953Z,26
2023-01-17T11:26:05.080Z,47
2023-01-17T11:27:12.255Z,46
2023-01-17T11:28:27.526Z,33
2023-01-17T11:29:36.055Z,27
2023-01-17T11:30:41.869Z,27
2023-01-17T11:31:54.004Z,28
2023-01-17T11:33:01.134Z,33
2023-01-17T11:34:08.272Z,30
2023-01-17T11:35:18.005Z,36
2023-01-17T11:36:30.298Z,34
2023-01-17T11:37:37.343Z,25
2023-01-17T11:38:44.302Z,34
2023-01-17T11:40:01.691Z,32
2023-01-17T11:41:11.893Z,31
2023-01-17T11:42:24.164Z,27
2023-01-17T11:43:34.209Z,38
2023-01-17T11:44:41.404Z,29
2023-01-17T11:45:48.425Z,25
2023-01-17T11:47:03.232Z,40
2023-01-17T11:48:15.518Z,45
2023-01-17T11:49:22.567Z,32
2023-01-17T11:50:29.715Z,45
2023-01-17T11:51:36.867Z,44
2023-01-17T11:52:44.060Z,47
2023-01-17T11:53:51.109Z,35
2023-01-17T11:54:58.259Z,25
2023-01-17T11:56:05.390Z,35
2023-01-17T11:57:12.545Z,43
2023-01-17T11:58:24.736Z,40
2023-01-17T11:59:32.057Z,34
2023-01-17T12:00:42.147Z,42
2023-01-17T12:01:49.182Z,25
2023-01-17T12:03:01.364Z,32
2023-01-17T12:04:11.299Z,32
2023-01-17T12:05:29.322Z,36
2023-01-17T12:06:57.060Z,34
2023-01-17T12:08:05.364Z,25
2023-01-17T12:09:23.529Z,34
2023-01-17T12:10:39.160Z,25
2023-01-17T12:11:49.316Z,36
2023-01-17T12:13:09.721Z,25
2023-01-17T12:14:25.036Z,29
2023-01-17T12:15:35.222Z,50
2023-01-17T12:16:47.936Z,29
2023-01-17T12:18:05.154Z,31
2023-01-17T12:19:14.906Z,26
2023-01-17T12:20:32.723Z,32
2023-01-17T12:21:48.408Z,32
2023-01-17T12:23:05.910Z,30
2023-01-17T12:24:12.960Z,31
2023-01-17T12:25:30.184Z,28
2023-01-17T12:26:40.355Z,25
2023-01-17T12:27:57.857Z,28
2023-01-17T12:29:14.960Z,29
2023-01-17T12:30:29.799Z,31
2023-01-17T12:31:42.664Z,33
2023-01-17T12:32:49.688Z,26
2023-01-17T12:34:01.745Z,40
2023-01-17T12:35:17.085Z,39
2023-01-17T12:36:26.779Z,34
2023-01-17T12:37:38.953Z,38
2023-01-17T12:38:46.187Z,40
2023-01-17T12:39:53.184Z,38
2023-01-17T12:41:00.399Z,39
2023-01-17T12:42:12.625Z,34
2023-01-17T12:43:22.776Z,26
2023-01-17T12:44:32.943Z,33
2023-01-17T12:45:47.898Z,32
2023-01-17T12:46:54.973Z,26
2023-01-17T12:48:04.490Z,34
2023-01-17T12:49:19.858Z,38
2023-01-17T12:50:37.018Z,37
2023-01-17T12:51:44.169Z,27
2023-01-17T12:52:51.383Z,27
2023-01-17T12:54:06.577Z,27
2023-01-17T12:55:18.822Z,33
2023-01-17T12:56:31.065Z,29
2023-01-17T12:57:43.219Z,36
2023-01-17T12:58:50.383Z,34
2023-01-17T13:00:07.699Z,37
2023-01-17T13:01:17.899Z,58
2023-01-17T13:02:27.431Z,37
2023-01-17T13:03:37.170Z,29
2023-01-17T13:04:57.938Z,30
2023-01-17T13:05:51.433Z,35
2023-01-17T13:06:58.530Z,31
2023-01-17T13:08:10.714Z,29
2023-01-17T13:09:25.597Z,35
2023-01-17T13:10:35.110Z,34
2023-01-17T13:11:45.327Z,44
2023-01-17T13:12:52.435Z,25
2023-01-17T13:13:59.596Z,48
2023-01-17T13:15:06.751Z,25
2023-01-17T13:16:19.028Z,25
2023-01-17T13:17:26.044Z,32
2023-01-17T13:18:40.841Z,39
2023-01-17T13:19:48.039Z,54
2023-01-17T13:21:00.749Z,53
2023-01-17T13:22:15.540Z,32
2023-01-17T13:23:22.657Z,27
2023-01-17T13:24:37.907Z,49
2023-01-17T13:25:47.588Z,56
2023-01-17T13:26:54.729Z,49
2023-01-17T13:28:12.015Z,26
2023-01-17T13:29:24.356Z,28
2023-01-17T13:30:37.053Z,41
2023-01-17T13:31:44.476Z,29
2023-01-17T13:32:56.882Z,42
2023-01-17T13:34:09.173Z,40
2023-01-17T13:35:26.469Z,48
2023-01-17T13:36:36.682Z,46
2023-01-17T13:37:48.741Z,34
2023-01-17T13:39:06.070Z,41
2023-01-17T13:40:23.479Z,38
2023-01-17T13:41:35.626Z,47
2023-01-17T13:42:50.444Z,25
2023-01-17T13:44:05.158Z,38
2023-01-17T13:45:17.503Z,34
2023-01-17T13:46:24.467Z,42
2023-01-17T13:47:31.636Z,51
2023-01-17T13:48:39.857Z,47
2023-01-17T13:49:46.903Z,52
2023-01-17T13:50:54.001Z,35
2023-01-17T13:52:06.247Z,35
2023-01-17T13:53:23.967Z,39
2023-01-17T13:54:31.082Z,39
2023-01-17T13:55:38.409Z,41
2023-01-17T13:56:47.957Z,38
2023-01-17T13:57:55.106Z,41
2023-01-17T13:59:02.237Z,55
2023-01-17T14:00:09.360Z,60
2023-01-17T14:01:16.553Z,59
2023-01-17T14:02:26.567Z,34
2023-01-17T14:03:36.831Z,37
2023-01-17T14:04:54.191Z,36
2023-01-17T14:06:08.911Z,58
2023-01-17T14:07:26.183Z,54
2023-01-17T14:08:33.242Z,49
2023-01-17T14:09:40.385Z,25
2023-01-17T14:10:47.642Z,55
2023-01-17T14:11:57.691Z,61
2023-01-17T14:13:07.325Z,52
2023-01-17T14:14:24.739Z,48
2023-01-17T14:15:39.831Z,32
2023-01-17T14:16:52.087Z,48
2023-01-17T14:17:59.234Z,48
2023-01-17T14:19:06.309Z,53
2023-01-17T14:20:13.446Z,47
2023-01-17T14:21:20.749Z,47
2023-01-17T14:22:33.509Z,49
2023-01-17T14:23:40.482Z,53
2023-01-17T14:24:50.141Z,54
2023-01-17T14:26:05.304Z,58
2023-01-17T14:27:15.030Z,54
2023-01-17T14:28:22.122Z,55
2023-01-17T14:29:31.728Z,57
2023-01-17T14:30:49.028Z,52
2023-01-17T14:31:56.056Z,62
2023-01-17T14:33:02.737Z,59
2023-01-17T14:34:09.950Z,60
2023-01-17T14:35:17.098Z,62
2023-01-17T14:36:24.331Z,63
2023-01-17T14:37:31.266Z,69
2023-01-17T14:38:46.678Z,76
2023-01-17T14:39:53.719Z,76
2023-01-17T14:41:00.742Z,61
2023-01-17T14:42:10.882Z,72
2023-01-17T14:43:18.110Z,68
2023-01-17T14:44:25.117Z,69
2023-01-17T14:45:31.948Z,74
2023-01-17T14:46:40.122Z,83
2023-01-17T14:47:47.248Z,82
2023-01-17T14:48:54.243Z,85
2023-01-17T14:50:06.596Z,81
2023-01-17T14:51:21.349Z,84
2023-01-17T14:52:28.395Z,81
2023-01-17T14:53:35.539Z,84
2023-01-17T14:54:42.759Z,84
2023-01-17T14:55:52.783Z,82
2023-01-17T14:57:06.036Z,86
2023-01-17T14:58:23.389Z,90
2023-01-17T14:59:30.456Z,80
2023-01-17T15:00:37.531Z,87
2023-01-17T15:01:52.499Z,90
2023-01-17T15:02:59.827Z,91
2023-01-17T15:04:06.926Z,82
2023-01-17T15:05:24.454Z,94
2023-01-17T15:06:31.395Z,89
2023-01-17T15:07:41.620Z,94
2023-01-17T15:08:48.700Z,97
2023-01-17T15:09:58.867Z,98
2023-01-17T15:11:05.984Z,97
2023-01-17T15:12:18.244Z,98
2023-01-17T15:13:35.558Z,102
2023-01-17T15:14:37.612Z,96
2023-01-17T15:15:44.702Z,102
2023-01-17T15:16:51.873Z,96
2023-01-17T15:17:58.842Z,96
2023-01-17T15:19:11.187Z,97
2023-01-17T15:20:18.300Z,105
2023-01-17T15:21:25.557Z,98
2023-01-17T15:22:35.554Z,112
2023-01-17T15:23:42.813Z,99
2023-01-17T15:24:52.929Z,103
2023-01-17T15:26:00.151Z,98
2023-01-17T15:27:07.203Z,97
2023-01-17T15:28:17.337Z,104
2023-01-17T15:29:24.426Z,104
2023-01-17T15:30:34.219Z,107
2023-01-17T15:31:41.179Z,100
2023-01-17T15:32:51.200Z,103
2023-01-17T15:33:58.063Z,101
2023-01-17T15:35:05.139Z,103
2023-01-17T15:36:12.318Z,104
2023-01-17T15:37:24.632Z,105
2023-01-17T15:38:38.444Z,105
2023-01-17T15:39:41.834Z,106
2023-01-17T15:40:48.970Z,105
2023-01-17T15:41:56.050Z,110
2023-01-17T15:43:03.130Z,107
2023-01-17T15:44:10.271Z,108
2023-01-17T15:45:27.694Z,110
2023-01-17T15:46:34.681Z,108
2023-01-17T15:47:44.310Z,109
2023-01-17T15:48:51.454Z,110
2023-01-17T15:49:58.639Z,112
2023-01-17T15:51:05.897Z,116
2023-01-17T15:52:12.984Z,121
2023-01-17T15:53:20.042Z,115
2023-01-17T15:54:32.171Z,109
2023-01-17T15:55:39.272Z,109
2023-01-17T15:56:46.426Z,108
2023-01-17T15:57:53.514Z,107
2023-01-17T15:59:00.703Z,107
2023-01-17T16:00:19.019Z,113
2023-01-17T16:01:31.601Z,110
2023-01-17T16:02:38.811Z,120
2023-01-17T16:03:45.521Z,123
2023-01-17T16:04:55.776Z,123
2023-01-17T16:06:02.824Z,116
2023-01-17T16:07:09.959Z,116
2023-01-17T16:08:22.212Z,117
2023-01-17T16:09:29.223Z,118
2023-01-17T16:10:46.671Z,113
2023-01-17T16:11:53.775Z,125
2023-01-17T16:13:00.894Z,121
2023-01-17T16:14:07.973Z,119
2023-01-17T16:15:16.959Z,122
2023-01-17T16:16:22.538Z,124
2023-01-17T16:17:29.458Z,127
2023-01-17T16:18:36.534Z,125